createdAt,value
2023-10-23T00:00:01.199Z,2.20
2023-10-23T00:00:12.262Z,2.20
2023-10-23T00:00:23.233Z,2.30
2023-10-23T00:00:34.025Z,2.30
2023-10-23T00:00:44.627Z,2.10
2023-10-23T00:00:55.122Z,2.00
2023-10-23T00:01:05.895Z,2.00
2023-10-23T00:01:16.450Z,2.20
2023-10-23T00:01:27.405Z,2.30
2023-10-23T00:01:38.187Z,2.40
2023-10-23T00:01:48.698Z,2.20
2023-10-23T00:01:59.652Z,2.10
2023-10-23T00:02:10.472Z,2.30
2023-10-23T00:02:21.530Z,2.20
2023-10-23T00:02:32.479Z,2.10
2023-10-23T00:02:43.272Z,1.90
2023-10-23T00:02:54.331Z,2.00
2023-10-23T00:03:05.451Z,2.10
2023-10-23T00:03:16.407Z,1.90
2023-10-23T00:03:27.283Z,2.00
2023-10-23T00:03:37.920Z,2.20
2023-10-23T00:03:48.974Z,2.00
2023-10-23T00:03:59.766Z,2.00
2023-10-23T00:04:10.389Z,1.90
2023-10-23T00:04:21.276Z,2.00
2023-10-23T00:04:31.844Z,2.00
2023-10-23T00:04:43.289Z,2.00
2023-10-23T00:04:53.749Z,2.00
2023-10-23T00:05:04.368Z,2.10
2023-10-23T00:05:15.085Z,1.90
2023-10-23T00:05:26.193Z,2.00
2023-10-23T00:05:36.750Z,2.00
2023-10-23T00:05:47.758Z,2.00
2023-10-23T00:05:58.504Z,2.20
2023-10-23T00:06:09.552Z,2.10
2023-10-23T00:06:20.542Z,2.10
2023-10-23T00:06:31.308Z,2.00
2023-10-23T00:06:42.394Z,2.00
2023-10-23T00:06:53.335Z,2.10
2023-10-23T00:07:04.085Z,2.00
2023-10-23T00:07:15.128Z,1.90
2023-10-23T00:07:26.102Z,1.80
2023-10-23T00:07:36.858Z,1.80
2023-10-23T00:07:47.912Z,1.80
2023-10-23T00:07:58.870Z,2.00
2023-10-23T00:08:09.661Z,2.10
2023-10-23T00:08:20.712Z,2.20
2023-10-23T00:08:31.678Z,2.10
2023-10-23T00:08:42.458Z,2.20
2023-10-23T00:08:53.502Z,2.20
2023-10-23T00:09:04.485Z,2.20
2023-10-23T00:09:15.298Z,2.30
2023-10-23T00:09:25.864Z,2.20
2023-10-23T00:09:36.826Z,2.00
2023-10-23T00:09:47.616Z,1.90
2023-10-23T00:09:58.614Z,2.10
2023-10-23T00:10:09.587Z,2.00
2023-10-23T00:10:20.361Z,2.00
2023-10-23T00:10:31.397Z,1.90
2023-10-23T00:10:42.357Z,2.00
2023-10-23T00:10:53.135Z,2.00
2023-10-23T00:11:04.180Z,2.00
2023-10-23T00:11:15.146Z,2.20
2023-10-23T00:11:25.915Z,2.30
2023-10-23T00:11:36.963Z,2.20
2023-10-23T00:11:47.925Z,2.30
2023-10-23T00:11:58.690Z,2.30
2023-10-23T00:12:09.737Z,2.40
2023-10-23T00:12:20.749Z,2.20
2023-10-23T00:12:31.551Z,1.80
2023-10-23T00:12:42.152Z,1.80
2023-10-23T00:12:53.173Z,1.70
2023-10-23T00:13:03.896Z,1.80
2023-10-23T00:13:14.941Z,1.90
2023-10-23T00:13:25.911Z,1.90
2023-10-23T00:13:36.673Z,1.90
2023-10-23T00:13:47.725Z,1.90
2023-10-23T00:13:58.679Z,1.80
2023-10-23T00:14:09.450Z,1.80
2023-10-23T00:14:20.503Z,1.90
2023-10-23T00:14:31.464Z,1.80
2023-10-23T00:14:42.226Z,1.80
2023-10-23T00:14:53.269Z,1.80
2023-10-23T00:15:04.238Z,2.00
2023-10-23T00:15:15.049Z,2.10
2023-10-23T00:15:26.139Z,2.00
2023-10-23T00:15:37.097Z,1.80
2023-10-23T00:15:47.913Z,1.70
2023-10-23T00:15:58.913Z,1.70
2023-10-23T00:16:09.909Z,1.80
2023-10-23T00:16:20.715Z,1.90
2023-10-23T00:16:31.778Z,1.80
2023-10-23T00:16:42.740Z,1.90
2023-10-23T00:16:53.501Z,2.00
2023-10-23T00:17:04.545Z,1.90
2023-10-23T00:17:15.541Z,1.80
2023-10-23T00:17:26.342Z,1.60
2023-10-23T00:17:37.373Z,1.80
2023-10-23T00:17:48.344Z,1.70
2023-10-23T00:17:59.150Z,1.80
2023-10-23T00:18:10.162Z,1.80
2023-10-23T00:18:21.164Z,1.90
2023-10-23T00:18:31.947Z,2.00
2023-10-23T00:18:43.022Z,2.00
2023-10-23T00:18:54.038Z,1.90
2023-10-23T00:19:04.790Z,1.80
2023-10-23T00:19:16.034Z,1.70
2023-10-23T00:19:26.462Z,1.90
2023-10-23T00:19:37.230Z,1.90
2023-10-23T00:19:48.271Z,1.90
2023-10-23T00:19:59.249Z,1.90
2023-10-23T00:20:10.009Z,1.80
2023-10-23T00:20:21.060Z,1.80
2023-10-23T00:20:32.015Z,1.90
2023-10-23T00:20:42.782Z,2.00
2023-10-23T00:20:53.838Z,1.80
2023-10-23T00:21:04.808Z,1.70
2023-10-23T00:21:15.603Z,1.60
2023-10-23T00:21:26.695Z,1.70
2023-10-23T00:21:37.697Z,1.80
2023-10-23T00:21:48.473Z,1.90
2023-10-23T00:21:58.997Z,1.90
2023-10-23T00:22:09.928Z,2.00
2023-10-23T00:22:20.692Z,2.00
2023-10-23T00:22:31.748Z,2.00
2023-10-23T00:22:42.704Z,1.90
2023-10-23T00:22:53.472Z,1.80
2023-10-23T00:23:04.513Z,1.90
2023-10-23T00:23:15.481Z,1.90
2023-10-23T00:23:26.245Z,2.00
2023-10-23T00:23:37.296Z,1.80
2023-10-23T00:23:48.253Z,2.00
2023-10-23T00:23:59.024Z,1.90
2023-10-23T00:24:10.079Z,1.90
2023-10-23T00:24:21.102Z,1.80
2023-10-23T00:24:31.880Z,1.80
2023-10-23T00:24:42.901Z,1.70
2023-10-23T00:24:53.848Z,1.60
2023-10-23T00:25:04.602Z,1.70
2023-10-23T00:25:15.665Z,1.80
2023-10-23T00:25:26.610Z,1.80
2023-10-23T00:25:37.394Z,1.90
2023-10-23T00:25:48.432Z,1.90
2023-10-23T00:25:59.399Z,2.00
2023-10-23T00:26:10.173Z,1.90
2023-10-23T00:26:21.224Z,1.80
2023-10-23T00:26:32.205Z,1.90
2023-10-23T00:26:42.965Z,1.80
2023-10-23T00:26:54.014Z,1.70
2023-10-23T00:27:04.992Z,1.70
2023-10-23T00:27:15.793Z,1.70
2023-10-23T00:27:26.855Z,1.70
2023-10-23T00:27:37.804Z,1.60
2023-10-23T00:27:48.609Z,1.60
2023-10-23T00:27:59.158Z,1.60
2023-10-23T00:28:10.167Z,1.70
2023-10-23T00:28:20.928Z,1.70
2023-10-23T00:28:31.972Z,1.70
2023-10-23T00:28:42.944Z,1.70
2023-10-23T00:28:53.707Z,1.70
2023-10-23T00:29:04.755Z,1.80
2023-10-23T00:29:15.715Z,1.80
2023-10-23T00:29:26.481Z,1.60
2023-10-23T00:29:37.530Z,1.60
2023-10-23T00:29:48.499Z,1.70
2023-10-23T00:29:59.263Z,1.70
2023-10-23T00:30:09.816Z,1.80
2023-10-23T00:30:20.822Z,1.70
2023-10-23T00:30:31.616Z,1.60
2023-10-23T00:30:42.188Z,1.80
2023-10-23T00:30:53.213Z,1.90
2023-10-23T00:31:04.029Z,1.90
2023-10-23T00:31:14.577Z,1.70
2023-10-23T00:31:25.566Z,1.70
2023-10-23T00:31:36.345Z,1.70
2023-10-23T00:31:47.367Z,1.90
2023-10-23T00:31:58.324Z,1.90
2023-10-23T00:32:09.132Z,2.20
2023-10-23T00:32:19.692Z,1.90
2023-10-23T00:32:30.676Z,2.00
2023-10-23T00:32:41.516Z,1.90
2023-10-23T00:32:52.135Z,1.80
2023-10-23T00:33:02.749Z,1.60
2023-10-23T00:33:13.614Z,1.60
2023-10-23T00:33:24.812Z,1.70
2023-10-23T00:33:35.337Z,1.60
2023-10-23T00:33:46.437Z,1.50
2023-10-23T00:33:57.144Z,1.60
2023-10-23T00:34:07.654Z,1.70
2023-10-23T00:34:18.442Z,1.80
2023-10-23T00:34:29.442Z,1.80
2023-10-23T00:34:40.405Z,1.60
2023-10-23T00:34:51.170Z,1.70
2023-10-23T00:35:02.210Z,1.70
2023-10-23T00:35:13.177Z,1.50
2023-10-23T00:35:23.947Z,1.40
2023-10-23T00:35:34.989Z,1.30
2023-10-23T00:35:45.958Z,1.60
2023-10-23T00:35:56.720Z,1.50
2023-10-23T00:36:07.776Z,1.50
2023-10-23T00:36:18.771Z,1.70
2023-10-23T00:36:29.553Z,1.80
2023-10-23T00:36:40.197Z,1.70
2023-10-23T00:36:51.154Z,1.60
2023-10-23T00:37:01.895Z,1.50
2023-10-23T00:37:12.940Z,1.50
2023-10-23T00:37:23.910Z,1.30
2023-10-23T00:37:34.669Z,1.40
2023-10-23T00:37:45.722Z,1.50
2023-10-23T00:37:56.678Z,1.40
2023-10-23T00:38:07.445Z,1.40
2023-10-23T00:38:18.487Z,1.30
2023-10-23T00:38:29.453Z,1.30
2023-10-23T00:38:40.224Z,1.40
2023-10-23T00:38:51.268Z,1.40
2023-10-23T00:39:02.227Z,1.30
2023-10-23T00:39:12.993Z,1.50
2023-10-23T00:39:24.176Z,1.60
2023-10-23T00:39:35.097Z,1.50
2023-10-23T00:39:45.899Z,1.30
2023-10-23T00:39:56.963Z,1.30
2023-10-23T00:40:07.896Z,1.60
2023-10-23T00:40:18.663Z,1.70
2023-10-23T00:40:29.708Z,1.70
2023-10-23T00:40:40.673Z,1.60
2023-10-23T00:40:51.521Z,1.50
2023-10-23T00:41:02.504Z,1.50
2023-10-23T00:41:13.480Z,1.50
2023-10-23T00:41:24.259Z,1.60
2023-10-23T00:41:35.286Z,1.50
2023-10-23T00:41:46.252Z,1.50
2023-10-23T00:41:57.015Z,1.30
2023-10-23T00:42:08.076Z,1.50
2023-10-23T00:42:19.063Z,1.40
2023-10-23T00:42:29.832Z,1.40
2023-10-23T00:42:40.901Z,1.30
2023-10-23T00:42:51.851Z,1.30
2023-10-23T00:43:02.576Z,1.40
2023-10-23T00:43:13.624Z,1.40
2023-10-23T00:43:24.633Z,1.30
2023-10-23T00:43:35.376Z,1.30
2023-10-23T00:43:46.412Z,1.40
2023-10-23T00:43:57.386Z,1.40
2023-10-23T00:44:08.150Z,1.50
2023-10-23T00:44:19.189Z,1.30
2023-10-23T00:44:30.155Z,1.30
2023-10-23T00:44:40.924Z,1.20
2023-10-23T00:44:51.971Z,1.40
2023-10-23T00:45:02.943Z,1.40
2023-10-23T00:45:13.715Z,1.40
2023-10-23T00:45:24.763Z,1.50
2023-10-23T00:45:35.748Z,1.60
2023-10-23T00:45:46.508Z,1.80
2023-10-23T00:45:57.562Z,1.50
2023-10-23T00:46:08.516Z,1.50
2023-10-23T00:46:19.298Z,1.50
2023-10-23T00:46:30.386Z,1.60
2023-10-23T00:46:41.350Z,1.50
2023-10-23T00:46:52.133Z,1.70
2023-10-23T00:47:02.822Z,1.80
2023-10-23T00:47:13.791Z,1.70
2023-10-23T00:47:24.579Z,1.50
2023-10-23T00:47:35.635Z,1.50
2023-10-23T00:47:46.595Z,1.70
2023-10-23T00:47:57.372Z,1.70
2023-10-23T00:48:08.429Z,1.80
2023-10-23T00:48:19.371Z,1.90
2023-10-23T00:48:30.153Z,2.00
2023-10-23T00:48:41.207Z,1.70
2023-10-23T00:48:52.200Z,1.60
2023-10-23T00:49:02.948Z,1.60
2023-10-23T00:49:13.996Z,1.80
2023-10-23T00:49:24.957Z,1.70
2023-10-23T00:49:35.752Z,1.80
2023-10-23T00:49:46.792Z,1.60
2023-10-23T00:49:57.762Z,1.50
2023-10-23T00:50:08.529Z,1.40
2023-10-23T00:50:19.572Z,1.60
2023-10-23T00:50:30.571Z,1.60
2023-10-23T00:50:41.352Z,1.60
2023-10-23T00:50:52.400Z,1.70
2023-10-23T00:51:03.371Z,1.70
2023-10-23T00:51:14.367Z,1.60
2023-10-23T00:51:24.926Z,1.60
2023-10-23T00:51:35.915Z,1.80
2023-10-23T00:51:46.709Z,1.80
2023-10-23T00:51:57.778Z,1.80
2023-10-23T00:52:08.722Z,1.80
2023-10-23T00:52:19.488Z,1.80
2023-10-23T00:52:30.534Z,1.80
2023-10-23T00:52:41.498Z,1.70
2023-10-23T00:52:52.264Z,1.80
2023-10-23T00:53:03.310Z,1.80
2023-10-23T00:53:14.286Z,1.70
2023-10-23T00:53:25.045Z,1.60
2023-10-23T00:53:36.089Z,1.80
2023-10-23T00:53:47.070Z,1.80
2023-10-23T00:53:57.842Z,1.70
2023-10-23T00:54:08.883Z,1.60
2023-10-23T00:54:19.871Z,1.50
2023-10-23T00:54:30.670Z,1.60
2023-10-23T00:54:41.733Z,1.60
2023-10-23T00:54:52.361Z,1.70
2023-10-23T00:55:03.224Z,1.80
2023-10-23T00:55:14.261Z,1.80
2023-10-23T00:55:25.239Z,1.80
2023-10-23T00:55:36.009Z,1.60
2023-10-23T00:55:47.059Z,1.60
2023-10-23T00:55:58.036Z,1.40
2023-10-23T00:56:08.924Z,1.40
2023-10-23T00:56:20.030Z,1.50
2023-10-23T00:56:30.945Z,1.50
2023-10-23T00:56:41.713Z,1.50
2023-10-23T00:56:52.768Z,1.50
2023-10-23T00:57:03.733Z,1.60
2023-10-23T00:57:14.543Z,1.60
2023-10-23T00:57:25.644Z,1.70
2023-10-23T00:57:36.627Z,1.60
2023-10-23T00:57:47.416Z,1.60
2023-10-23T00:57:57.931Z,1.60
2023-10-23T00:58:08.897Z,1.60
2023-10-23T00:58:19.661Z,1.70
2023-10-23T00:58:30.706Z,1.70
2023-10-23T00:58:41.685Z,1.70
2023-10-23T00:58:52.446Z,1.60
2023-10-23T00:59:03.483Z,1.50
2023-10-23T00:59:14.442Z,1.50
2023-10-23T00:59:25.216Z,1.70
2023-10-23T00:59:36.256Z,1.70
2023-10-23T00:59:47.227Z,1.70
2023-10-23T00:59:57.992Z,1.90
2023-10-23T01:00:09.031Z,1.70
2023-10-23T01:00:20.065Z,1.50
2023-10-23T01:00:30.822Z,1.60
2023-10-23T01:00:41.912Z,1.70
2023-10-23T01:00:52.483Z,1.60
2023-10-23T01:01:03.331Z,1.70
2023-10-23T01:01:13.993Z,1.80
2023-10-23T01:01:24.626Z,1.70
2023-10-23T01:01:35.389Z,1.70
2023-10-23T01:01:46.481Z,1.80
2023-10-23T01:01:57.534Z,2.00
2023-10-23T01:02:08.350Z,2.10
2023-10-23T01:02:18.872Z,1.80
2023-10-23T01:02:29.881Z,1.70
2023-10-23T01:02:40.706Z,1.50
2023-10-23T01:02:51.422Z,1.70
2023-10-23T01:03:01.942Z,1.70
2023-10-23T01:03:12.704Z,1.80
2023-10-23T01:03:23.887Z,1.70
2023-10-23T01:03:34.364Z,1.70
2023-10-23T01:03:45.182Z,1.80
2023-10-23T01:03:56.232Z,1.70
2023-10-23T01:04:07.182Z,1.60
2023-10-23T01:04:17.940Z,1.60
2023-10-23T01:04:29.010Z,1.60
2023-10-23T01:04:40.146Z,1.90
2023-10-23T01:04:50.884Z,1.80
2023-10-23T01:05:01.928Z,1.90
2023-10-23T01:05:12.892Z,1.60
2023-10-23T01:05:23.669Z,1.60
2023-10-23T01:05:34.724Z,1.50
2023-10-23T01:05:45.680Z,1.60
2023-10-23T01:05:56.497Z,1.60
2023-10-23T01:06:07.000Z,1.60
2023-10-23T01:06:17.980Z,1.60
2023-10-23T01:06:28.819Z,1.80
2023-10-23T01:06:39.335Z,1.90
2023-10-23T01:06:50.299Z,1.80
2023-10-23T01:07:01.103Z,1.70
2023-10-23T01:07:12.152Z,1.60
2023-10-23T01:07:23.116Z,1.50
2023-10-23T01:07:33.881Z,1.50
2023-10-23T01:07:44.927Z,1.70
2023-10-23T01:07:55.895Z,1.70
2023-10-23T01:08:06.671Z,1.70
2023-10-23T01:08:17.721Z,1.70
2023-10-23T01:08:28.693Z,1.70
2023-10-23T01:08:39.462Z,1.50
2023-10-23T01:08:50.519Z,1.60
2023-10-23T01:09:01.485Z,1.70
2023-10-23T01:09:12.244Z,1.70
2023-10-23T01:09:23.318Z,1.70
2023-10-23T01:09:34.386Z,1.70
2023-10-23T01:09:45.166Z,1.70
2023-10-23T01:09:56.219Z,1.80
2023-10-23T01:10:07.165Z,1.70
2023-10-23T01:10:17.921Z,1.70
2023-10-23T01:10:28.966Z,1.60
2023-10-23T01:10:39.937Z,1.90
2023-10-23T01:10:50.727Z,2.20
2023-10-23T01:11:01.808Z,2.20
2023-10-23T01:11:12.782Z,2.00
2023-10-23T01:11:23.558Z,1.60
2023-10-23T01:11:34.396Z,1.80
2023-10-23T01:11:45.357Z,1.80
2023-10-23T01:11:56.121Z,1.80
2023-10-23T01:12:07.170Z,1.50
2023-10-23T01:12:18.155Z,1.70
2023-10-23T01:12:28.971Z,1.80
2023-10-23T01:12:40.030Z,1.90
2023-10-23T01:12:51.035Z,1.80
2023-10-23T01:13:01.783Z,1.70
2023-10-23T01:13:12.829Z,1.80
2023-10-23T01:13:23.802Z,1.90
2023-10-23T01:13:34.578Z,1.90
2023-10-23T01:13:45.618Z,1.80
2023-10-23T01:13:56.584Z,1.60
2023-10-23T01:14:07.391Z,1.80
2023-10-23T01:14:18.435Z,1.70
2023-10-23T01:14:29.400Z,1.70
2023-10-23T01:14:40.207Z,1.60
2023-10-23T01:14:51.212Z,1.40
2023-10-23T01:15:02.181Z,1.50
2023-10-23T01:15:12.951Z,1.70
2023-10-23T01:15:24.004Z,1.80
2023-10-23T01:15:34.992Z,1.60
2023-10-23T01:15:45.845Z,1.60
2023-10-23T01:15:56.324Z,1.70
2023-10-23T01:16:07.295Z,1.80
2023-10-23T01:16:18.099Z,1.90
2023-10-23T01:16:29.161Z,2.00
2023-10-23T01:16:40.167Z,1.90
2023-10-23T01:16:50.992Z,1.80
2023-10-23T01:17:01.473Z,1.90
2023-10-23T01:17:12.453Z,1.80
2023-10-23T01:17:23.215Z,2.10
2023-10-23T01:17:34.309Z,1.80
2023-10-23T01:17:45.249Z,1.90
2023-10-23T01:17:56.029Z,1.60
2023-10-23T01:18:07.125Z,1.80
2023-10-23T01:18:18.095Z,1.80
2023-10-23T01:18:28.854Z,2.00
2023-10-23T01:18:39.960Z,1.80
2023-10-23T01:18:51.012Z,1.80
2023-10-23T01:19:01.778Z,1.70
2023-10-23T01:19:12.818Z,1.70
2023-10-23T01:19:23.782Z,1.70
2023-10-23T01:19:34.548Z,1.90
2023-10-23T01:19:45.593Z,2.10
2023-10-23T01:19:56.557Z,2.10
2023-10-23T01:20:07.328Z,1.90
2023-10-23T01:20:18.365Z,1.90
2023-10-23T01:20:29.334Z,1.90
2023-10-23T01:20:40.104Z,1.70
2023-10-23T01:20:51.145Z,1.80
2023-10-23T01:21:02.109Z,1.90
2023-10-23T01:21:12.879Z,2.00
2023-10-23T01:21:24.051Z,1.90
2023-10-23T01:21:34.500Z,1.80
2023-10-23T01:21:45.301Z,1.90
2023-10-23T01:21:56.176Z,2.00
2023-10-23T01:22:07.117Z,2.00
2023-10-23T01:22:17.888Z,2.00
2023-10-23T01:22:28.936Z,1.90
2023-10-23T01:22:39.896Z,1.90
2023-10-23T01:22:50.660Z,2.00
2023-10-23T01:23:01.730Z,2.00
2023-10-23T01:23:12.676Z,1.80
2023-10-23T01:23:23.440Z,1.70
2023-10-23T01:23:34.495Z,1.90
2023-10-23T01:23:45.472Z,2.00
2023-10-23T01:23:56.226Z,2.00
2023-10-23T01:24:07.268Z,2.00
2023-10-23T01:24:18.256Z,2.20
2023-10-23T01:24:29.090Z,2.20
2023-10-23T01:24:39.926Z,2.10
2023-10-23T01:24:50.500Z,1.70
2023-10-23T01:25:01.251Z,1.70
2023-10-23T01:25:12.273Z,1.80
2023-10-23T01:25:23.245Z,1.80
2023-10-23T01:25:33.997Z,1.80
2023-10-23T01:25:45.049Z,1.70
2023-10-23T01:25:56.033Z,1.80
2023-10-23T01:26:06.775Z,1.60
2023-10-23T01:26:17.826Z,1.70
2023-10-23T01:26:28.805Z,1.80
2023-10-23T01:26:39.564Z,1.80
2023-10-23T01:26:50.645Z,1.70
2023-10-23T01:27:01.608Z,1.70
2023-10-23T01:27:12.380Z,2.00
2023-10-23T01:27:22.961Z,1.80
2023-10-23T01:27:33.949Z,1.90
2023-10-23T01:27:44.707Z,1.90
2023-10-23T01:27:55.762Z,1.80
2023-10-23T01:28:06.706Z,1.80
2023-10-23T01:28:17.491Z,1.80
2023-10-23T01:28:28.534Z,1.90
2023-10-23T01:28:39.511Z,2.00
2023-10-23T01:28:50.272Z,2.00
2023-10-23T01:29:01.324Z,2.00
2023-10-23T01:29:12.283Z,2.00
2023-10-23T01:29:23.048Z,2.10
2023-10-23T01:29:34.091Z,2.10
2023-10-23T01:29:45.063Z,1.90
2023-10-23T01:29:55.840Z,1.80
2023-10-23T01:30:06.867Z,1.90
2023-10-23T01:30:17.836Z,2.00
2023-10-23T01:30:28.635Z,2.00
2023-10-23T01:30:39.764Z,2.00
2023-10-23T01:30:50.339Z,2.10
2023-10-23T01:31:01.174Z,1.90
2023-10-23T01:31:11.876Z,2.00
2023-10-23T01:31:22.384Z,2.00
2023-10-23T01:31:33.117Z,2.10
2023-10-23T01:31:44.199Z,2.00
2023-10-23T01:31:55.173Z,1.80
2023-10-23T01:32:05.949Z,1.90
2023-10-23T01:32:16.509Z,1.80
2023-10-23T01:32:27.521Z,2.00
2023-10-23T01:32:38.290Z,1.90
2023-10-23T01:32:49.353Z,2.00
2023-10-23T01:33:00.334Z,1.90
2023-10-23T01:33:11.081Z,1.90
2023-10-23T01:33:22.195Z,1.90
2023-10-23T01:33:33.145Z,1.90
2023-10-23T01:33:43.962Z,2.00
2023-10-23T01:33:55.010Z,1.90
2023-10-23T01:34:05.945Z,2.00
2023-10-23T01:34:16.709Z,1.80
2023-10-23T01:34:27.756Z,1.90
2023-10-23T01:34:38.925Z,2.00
2023-10-23T01:34:49.740Z,2.20
2023-10-23T01:35:00.786Z,2.10
2023-10-23T01:35:11.744Z,2.10
2023-10-23T01:35:22.522Z,2.20
2023-10-23T01:35:33.556Z,2.00
2023-10-23T01:35:44.523Z,2.10
2023-10-23T01:35:55.294Z,2.00
2023-10-23T01:36:06.344Z,2.00
2023-10-23T01:36:17.313Z,2.00
2023-10-23T01:36:28.079Z,2.20
2023-10-23T01:36:39.198Z,2.10
2023-10-23T01:36:50.188Z,2.10
2023-10-23T01:37:00.945Z,1.80
2023-10-23T01:37:11.987Z,1.90
2023-10-23T01:37:22.956Z,2.20
2023-10-23T01:37:33.741Z,2.20
2023-10-23T01:37:44.787Z,2.40
2023-10-23T01:37:55.757Z,2.10
2023-10-23T01:38:06.532Z,2.30
2023-10-23T01:38:17.584Z,2.10
2023-10-23T01:38:28.543Z,2.00
2023-10-23T01:38:39.317Z,1.90
2023-10-23T01:38:50.363Z,1.90
2023-10-23T01:39:01.326Z,1.90
2023-10-23T01:39:12.101Z,2.00
2023-10-23T01:39:23.150Z,2.00
2023-10-23T01:39:34.190Z,2.00
2023-10-23T01:39:44.967Z,1.80
2023-10-23T01:39:55.970Z,2.00
2023-10-23T01:40:06.927Z,1.90
2023-10-23T01:40:17.683Z,1.90
2023-10-23T01:40:28.729Z,2.10
2023-10-23T01:40:39.706Z,2.30
2023-10-23T01:40:50.461Z,2.40
2023-10-23T01:41:01.514Z,1.90
2023-10-23T01:41:12.481Z,2.00
2023-10-23T01:41:23.246Z,2.00
2023-10-23T01:41:34.300Z,2.10
2023-10-23T01:41:45.255Z,1.90
2023-10-23T01:41:56.023Z,1.90
2023-10-23T01:42:07.092Z,1.70
2023-10-23T01:42:18.101Z,1.90
2023-10-23T01:42:28.864Z,1.90
2023-10-23T01:42:39.921Z,1.90
2023-10-23T01:42:51.113Z,2.00
2023-10-23T01:43:01.890Z,2.00
2023-10-23T01:43:12.938Z,2.00
2023-10-23T01:43:23.901Z,1.60
2023-10-23T01:43:34.663Z,1.60
2023-10-23T01:43:45.713Z,1.70
2023-10-23T01:43:56.673Z,1.90
2023-10-23T01:44:07.439Z,2.00
2023-10-23T01:44:18.485Z,2.00
2023-10-23T01:44:29.448Z,1.90
2023-10-23T01:44:40.455Z,1.90
2023-10-23T01:44:51.041Z,2.00
2023-10-23T01:45:02.004Z,2.10
2023-10-23T01:45:12.777Z,2.00
2023-10-23T01:45:23.873Z,2.10
2023-10-23T01:45:34.869Z,2.00
2023-10-23T01:45:45.676Z,1.90
2023-10-23T01:45:56.742Z,2.10
2023-10-23T01:46:07.788Z,2.00
2023-10-23T01:46:18.552Z,2.00
2023-10-23T01:46:29.629Z,2.10
2023-10-23T01:46:40.590Z,1.90
2023-10-23T01:46:51.395Z,1.80
2023-10-23T01:47:02.399Z,1.80
2023-10-23T01:47:13.372Z,2.00
2023-10-23T01:47:24.141Z,2.10
2023-10-23T01:47:35.233Z,2.20
2023-10-23T01:47:46.230Z,2.10
2023-10-23T01:47:56.997Z,2.10
2023-10-23T01:48:08.044Z,2.10
2023-10-23T01:48:19.011Z,2.10
2023-10-23T01:48:29.820Z,2.00
2023-10-23T01:48:40.357Z,2.00
2023-10-23T01:48:51.305Z,2.00
2023-10-23T01:49:02.203Z,2.00
2023-10-23T01:49:13.247Z,1.90
2023-10-23T01:49:24.218Z,1.90
2023-10-23T01:49:34.992Z,1.80
2023-10-23T01:49:46.025Z,1.90
2023-10-23T01:49:56.991Z,1.70
2023-10-23T01:50:07.760Z,1.70
2023-10-23T01:50:18.816Z,1.60
2023-10-23T01:50:29.766Z,1.80
2023-10-23T01:50:41.851Z,1.90
2023-10-23T01:50:51.377Z,1.80
2023-10-23T01:51:02.349Z,1.80
2023-10-23T01:51:13.128Z,1.90
2023-10-23T01:51:24.227Z,2.10
2023-10-23T01:51:35.189Z,2.10
2023-10-23T01:51:46.022Z,2.00
2023-10-23T01:51:56.578Z,1.80
2023-10-23T01:52:07.530Z,1.90
2023-10-23T01:52:18.314Z,1.90
2023-10-23T01:52:29.366Z,1.90
2023-10-23T01:52:40.336Z,1.90
2023-10-23T01:52:51.120Z,2.10
2023-10-23T01:53:02.178Z,2.20
2023-10-23T01:53:13.152Z,2.00
2023-10-23T01:53:23.916Z,2.10
2023-10-23T01:53:34.976Z,2.10
2023-10-23T01:53:45.936Z,2.00
2023-10-23T01:53:56.697Z,2.20
2023-10-23T01:54:07.749Z,2.20
2023-10-23T01:54:18.765Z,2.10
2023-10-23T01:54:29.515Z,2.00
2023-10-23T01:54:40.201Z,2.00
2023-10-23T01:54:50.779Z,2.00
2023-10-23T01:55:01.518Z,1.90
2023-10-23T01:55:12.557Z,1.90
2023-10-23T01:55:23.517Z,1.90
2023-10-23T01:55:34.285Z,1.90
2023-10-23T01:55:45.332Z,2.00
2023-10-23T01:55:56.300Z,1.90
2023-10-23T01:56:07.059Z,1.90
2023-10-23T01:56:18.106Z,2.00
2023-10-23T01:56:29.069Z,2.20
2023-10-23T01:56:39.843Z,2.20
2023-10-23T01:56:50.884Z,2.00
2023-10-23T01:57:01.842Z,1.90
2023-10-23T01:57:12.610Z,2.10
2023-10-23T01:57:23.695Z,2.10
2023-10-23T01:57:34.721Z,2.20
2023-10-23T01:57:45.532Z,2.20
2023-10-23T01:57:56.596Z,2.00
2023-10-23T01:58:07.545Z,1.90
2023-10-23T01:58:18.318Z,2.00
2023-10-23T01:58:29.354Z,2.10
2023-10-23T01:58:40.329Z,2.00
2023-10-23T01:58:51.095Z,2.00
2023-10-23T01:59:02.136Z,1.90
2023-10-23T01:59:13.181Z,2.00
2023-10-23T01:59:23.946Z,2.10
2023-10-23T01:59:34.991Z,2.10
2023-10-23T01:59:45.956Z,2.00
2023-10-23T01:59:56.746Z,1.90
2023-10-23T02:00:07.761Z,2.00
2023-10-23T02:00:18.813Z,1.90
2023-10-23T02:00:29.753Z,1.90
2023-10-23T02:00:40.359Z,1.90
2023-10-23T02:00:51.460Z,2.00
2023-10-23T02:01:02.243Z,2.00
2023-10-23T02:01:12.770Z,1.90
2023-10-23T02:01:23.887Z,1.80
2023-10-23T02:01:34.757Z,1.90
2023-10-23T02:01:45.265Z,1.90
2023-10-23T02:01:56.207Z,2.00
2023-10-23T02:02:06.972Z,2.10
2023-10-23T02:02:18.013Z,2.10
2023-10-23T02:02:29.150Z,1.80
2023-10-23T02:02:39.947Z,1.70
2023-10-23T02:02:50.625Z,1.80
2023-10-23T02:03:01.200Z,1.90
2023-10-23T02:03:12.173Z,1.80
2023-10-23T02:03:22.819Z,1.80
2023-10-23T02:03:33.444Z,2.00
2023-10-23T02:03:44.377Z,1.90
2023-10-23T02:03:55.081Z,2.10
2023-10-23T02:04:05.672Z,1.90
2023-10-23T02:04:16.530Z,1.80
2023-10-23T02:04:27.123Z,2.10
2023-10-23T02:04:38.269Z,2.20
2023-10-23T02:04:49.177Z,2.10
2023-10-23T02:05:00.232Z,1.80
2023-10-23T02:05:11.206Z,1.90
2023-10-23T02:05:21.956Z,1.80
2023-10-23T02:05:33.001Z,1.60
2023-10-23T02:05:43.963Z,1.70
2023-10-23T02:05:54.736Z,1.70
2023-10-23T02:06:05.775Z,1.90
2023-10-23T02:06:16.782Z,2.20
2023-10-23T02:06:27.532Z,2.20
2023-10-23T02:06:38.612Z,2.10
2023-10-23T02:06:49.577Z,1.90
2023-10-23T02:07:00.359Z,1.80
2023-10-23T02:07:11.403Z,2.00
2023-10-23T02:07:22.369Z,2.00
2023-10-23T02:07:33.151Z,2.00
2023-10-23T02:07:44.202Z,1.90
2023-10-23T02:07:55.175Z,1.70
2023-10-23T02:08:05.946Z,1.70
2023-10-23T02:08:16.992Z,1.70
2023-10-23T02:08:27.960Z,1.70
2023-10-23T02:08:38.732Z,1.60
2023-10-23T02:08:49.769Z,1.70
2023-10-23T02:09:00.746Z,1.70
2023-10-23T02:09:11.514Z,1.90
2023-10-23T02:09:22.573Z,1.90
2023-10-23T02:09:33.592Z,2.10
2023-10-23T02:09:44.425Z,2.00
2023-10-23T02:09:55.017Z,1.90
2023-10-23T02:10:05.953Z,1.90
2023-10-23T02:10:16.720Z,1.90
2023-10-23T02:10:27.763Z,2.00
2023-10-23T02:10:38.747Z,2.00
2023-10-23T02:10:49.505Z,2.00
2023-10-23T02:11:00.560Z,1.70
2023-10-23T02:11:11.537Z,1.70
2023-10-23T02:11:22.300Z,1.70
2023-10-23T02:11:33.349Z,1.80
2023-10-23T02:11:44.299Z,1.90
2023-10-23T02:11:55.065Z,1.80
2023-10-23T02:12:06.153Z,1.70
2023-10-23T02:12:17.080Z,1.70
2023-10-23T02:12:27.894Z,1.70
2023-10-23T02:12:38.957Z,1.60
2023-10-23T02:12:50.017Z,1.60
2023-10-23T02:13:00.783Z,1.70
2023-10-23T02:13:11.833Z,1.70
2023-10-23T02:13:22.796Z,1.80
2023-10-23T02:13:33.566Z,1.90
2023-10-23T02:13:44.651Z,1.80
2023-10-23T02:13:55.575Z,1.80
2023-10-23T02:14:06.346Z,1.90
2023-10-23T02:14:17.390Z,1.80
2023-10-23T02:14:28.365Z,1.80
2023-10-23T02:14:39.387Z,2.10
2023-10-23T02:14:50.111Z,2.00
2023-10-23T02:15:01.072Z,1.80
2023-10-23T02:15:11.873Z,1.70
2023-10-23T02:15:22.911Z,1.90
2023-10-23T02:15:33.908Z,1.90
2023-10-23T02:15:44.677Z,1.90
2023-10-23T02:15:55.741Z,1.90
2023-10-23T02:16:06.269Z,1.80
2023-10-23T02:16:17.048Z,1.90
2023-10-23T02:16:28.107Z,2.00
2023-10-23T02:16:39.176Z,2.10
2023-10-23T02:16:49.977Z,2.00
2023-10-23T02:17:00.537Z,1.90
2023-10-23T02:17:11.479Z,2.00
2023-10-23T02:17:22.271Z,2.00
2023-10-23T02:17:33.362Z,2.00
2023-10-23T02:17:44.378Z,2.10
2023-10-23T02:17:55.215Z,2.30
2023-10-23T02:18:05.774Z,2.40
2023-10-23T02:18:16.906Z,2.30
2023-10-23T02:18:27.760Z,2.10
2023-10-23T02:18:38.347Z,2.00
2023-10-23T02:18:49.336Z,1.90
2023-10-23T02:19:00.086Z,1.80
2023-10-23T02:19:11.194Z,1.60
2023-10-23T02:19:22.153Z,1.60
2023-10-23T02:19:32.940Z,1.60
2023-10-23T02:19:43.965Z,1.90
2023-10-23T02:19:54.931Z,2.20
2023-10-23T02:20:05.699Z,2.20
2023-10-23T02:20:16.751Z,2.10
2023-10-23T02:20:27.709Z,2.00
2023-10-23T02:20:38.480Z,2.00
2023-10-23T02:20:49.530Z,2.00
2023-10-23T02:21:00.490Z,2.00
2023-10-23T02:21:11.269Z,1.90
2023-10-23T02:21:22.330Z,1.80
2023-10-23T02:21:33.311Z,1.80
2023-10-23T02:21:44.059Z,2.00
2023-10-23T02:21:55.117Z,1.90
2023-10-23T02:22:06.086Z,1.90
2023-10-23T02:22:16.865Z,1.90
2023-10-23T02:22:27.915Z,2.00
2023-10-23T02:22:38.886Z,1.90
2023-10-23T02:22:49.658Z,2.00
2023-10-23T02:23:00.694Z,1.90
2023-10-23T02:23:11.665Z,1.90
2023-10-23T02:23:22.432Z,1.90
2023-10-23T02:23:44.788Z,2.00
2023-10-23T02:23:56.332Z,2.00
2023-10-23T02:23:57.325Z,2.00
2023-10-23T02:24:05.851Z,1.80
2023-10-23T02:24:16.909Z,1.80
2023-10-23T02:24:27.659Z,1.70
2023-10-23T02:24:38.893Z,1.90
2023-10-23T02:24:49.465Z,1.70
2023-10-23T02:25:00.290Z,1.70